Time;durP1;ratioP1;P1;durP2;ratioP2;P2;SDS_P1;SDS_P2;PMS_P1;PMS_P2;Temp;Humidity;BMP_temperature;BMP_pressure;BME280_temperature;BME280_humidity;BME280_pressure;Samples;Min_cycle;Max_cycle;Signal;HPM_P1;HPM_P2
2023/07/31 00:05:59;;;;;;;3.85;2.20;;;;;;;14.59;82.51;99992.56;20796780;28;20228;-81
2023/07/31 00:16:02;;;;;;;4.17;2.07;;;;;;;14.86;81.74;99982.34;20781606;28;20701;-81
2023/07/31 00:26:05;;;;;;;4.22;1.80;;;;;;;13.90;86.60;99989.03;20780651;28;20619;-80
2023/07/31 00:36:07;;;;;;;3.75;2.17;;;;;;;14.24;84.55;99976.28;20781212;28;20690;-81
2023/07/31 00:46:10;;;;;;;6.95;2.90;;;;;;;14.41;84.18;99977.97;20800287;28;20196;-80
2023/07/31 00:56:13;;;;;;;6.47;3.13;;;;;;;14.11;85.08;99988.81;20761245;28;20283;-79
2023/07/31 01:06:34;;;;;;;6.10;3.10;;;;;;;14.06;84.58;99980.59;20744956;28;20235;-78
2023/07/31 01:16:37;;;;;;;9.87;3.47;;;;;;;14.29;83.57;99970.34;20760590;28;20270;-81
2023/07/31 01:26:46;;;;;;;10.10;3.57;;;;;;;14.52;82.58;99964.09;20767626;28;20193;-79
2023/07/31 01:36:49;;;;;;;9.63;3.97;;;;;;;14.83;80.71;99963.25;20764366;28;20260;-79
2023/07/31 01:46:52;;;;;;;7.50;3.17;;;;;;;15.22;78.51;99965.03;20757260;28;20524;-79
2023/07/31 01:56:55;;;;;;;9.60;3.80;;;;;;;14.70;80.85;99965.34;20782258;28;20808;-79
2023/07/31 02:06:58;;;;;;;6.07;2.80;;;;;;;14.16;81.15;99963.06;20762346;28;20236;-78
2023/07/31 02:17:00;;;;;;;10.63;2.85;;;;;;;14.43;79.29;99958.59;20789994;28;20263;-78
2023/07/31 02:27:03;;;;;;;8.95;3.38;;;;;;;14.54;78.99;99944.72;20765616;28;20254;-78
2023/07/31 02:37:06;;;;;;;8.43;3.55;;;;;;;14.60;77.82;99946.91;20754538;28;20232;-78
2023/07/31 02:47:09;;;;;;;8.33;3.20;;;;;;;14.72;77.13;99940.31;20772744;28;20196;-79
2023/07/31 02:57:11;;;;;;;8.55;3.30;;;;;;;14.37;78.41;99951.56;20780246;28;20225;-77
2023/07/31 03:07:14;;;;;;;6.17;2.80;;;;;;;14.29;77.87;99942.03;20820154;28;20734;-79
2023/07/31 03:17:16;;;;;;;7.83;3.63;;;;;;;14.55;76.52;99923.72;20778261;28;20695;-78
2023/07/31 03:27:19;;;;;;;8.55;4.13;;;;;;;14.94;74.26;99925.47;20800242;28;20725;-78
2023/07/31 03:37:22;;;;;;;12.37;3.63;;;;;;;14.90;73.69;99930.25;20790993;28;20220;-79
2023/07/31 03:47:25;;;;;;;9.07;3.70;;;;;;;14.88;73.84;99924.13;20770204;28;20721;-80
2023/07/31 03:57:27;;;;;;;9.80;4.05;;;;;;;14.67;76.01;99918.78;20803015;28;20274;-79
2023/07/31 04:07:30;;;;;;;6.43;3.20;;;;;;;14.98;73.96;99912.22;20800740;28;20290;-81
2023/07/31 04:17:33;;;;;;;9.83;3.40;;;;;;;14.77;74.78;99916.56;20785417;28;20485;-80
2023/07/31 04:27:36;;;;;;;9.90;2.80;;;;;;;14.65;74.75;99897.69;20784614;28;20675;-80
2023/07/31 04:37:39;;;;;;;8.00;3.58;;;;;;;15.31;72.73;99900.47;20799480;28;20977;-80
2023/07/31 04:47:41;;;;;;;11.27;3.72;;;;;;;15.12;73.61;99886.25;20783045;28;20196;-79
2023/07/31 04:57:43;;;;;;;8.75;3.42;;;;;;;15.31;73.08;99877.78;20781219;28;20298;-80
2023/07/31 05:07:46;;;;;;;9.65;3.33;;;;;;;16.16;70.06;99885.19;20777845;28;20220;-80
2023/07/31 05:17:49;;;;;;;9.47;3.37;;;;;;;15.70;72.58;99874.94;20784513;28;20213;-80
2023/07/31 05:27:51;;;;;;;9.95;3.45;;;;;;;15.62;72.53;99856.13;20789583;28;20205;-82
2023/07/31 05:37:54;;;;;;;8.93;3.63;;;;;;;16.01;72.30;99851.22;20795424;28;20228;-81
2023/07/31 05:47:56;;;;;;;9.27;3.63;;;;;;;15.72;73.91;99841.34;20788046;28;20250;-80
2023/07/31 05:57:59;;;;;;;8.73;3.53;;;;;;;15.75;72.73;99830.06;20765614;28;20224;-80
2023/07/31 06:08:03;;;;;;;6.77;3.47;;;;;;;15.51;75.99;99833.22;20783757;28;20232;-80
2023/07/31 06:18:07;;;;;;;8.18;4.18;;;;;;;15.61;75.75;99821.25;20786274;28;20216;-80
2023/07/31 06:28:10;;;;;;;7.80;4.30;;;;;;;15.79;74.17;99813.97;20804666;28;20201;-80
2023/07/31 06:38:12;;;;;;;8.10;4.10;;;;;;;15.85;73.31;99802.31;20788239;28;20290;-81
2023/07/31 06:48:15;;;;;;;8.23;3.87;;;;;;;15.76;75.77;99803.34;20795652;28;20204;-81
2023/07/31 06:58:17;;;;;;;8.00;3.83;;;;;;;15.14;76.94;99798.03;20790036;28;20224;-81
2023/07/31 07:08:20;;;;;;;4.80;2.97;;;;;;;16.17;74.86;99792.31;20763169;28;20719;-81
2023/07/31 07:18:22;;;;;;;6.55;3.55;;;;;;;15.74;76.39;99805.72;20800376;28;20504;-82
2023/07/31 07:28:25;;;;;;;5.45;2.92;;;;;;;15.40;77.70;99801.00;20788151;28;20482;-81
2023/07/31 07:38:28;;;;;;;5.45;3.15;;;;;;;15.03;79.02;99792.97;20786404;28;20282;-79
2023/07/31 07:48:30;;;;;;;4.82;3.30;;;;;;;14.72;80.76;99793.03;20784821;28;20255;-81
2023/07/31 07:58:33;;;;;;;4.90;2.80;;;;;;;15.23;80.44;99793.78;20784865;28;20278;-82
2023/07/31 08:08:36;;;;;;;7.05;2.60;;;;;;;15.34;80.16;99780.63;20779436;28;20563;-81
2023/07/31 08:18:40;;;;;;;5.30;2.67;;;;;;;15.68;77.85;99780.88;20768756;28;20231;-82
2023/07/31 08:28:43;;;;;;;6.67;2.70;;;;;;;15.36;80.33;99772.56;20784496;28;20323;-81
2023/07/31 08:38:46;;;;;;;5.00;2.75;;;;;;;14.80;81.57;99766.53;20773251;28;20239;-81
2023/07/31 08:48:50;;;;;;;6.43;3.40;;;;;;;15.45;81.99;99758.19;20793914;28;20192;-81
2023/07/31 08:58:53;;;;;;;3.55;2.13;;;;;;;15.27;80.29;99772.00;20774081;28;20252;-83
2023/07/31 09:08:55;;;;;;;2.93;1.67;;;;;;;14.61;83.58;99775.00;20761893;28;20228;-82
2023/07/31 09:19:01;;;;;;;2.13;1.47;;;;;;;15.55;81.44;99751.88;20792844;28;20286;-81
2023/07/31 09:29:06;;;;;;;3.95;1.95;;;;;;;15.43;81.17;99771.91;20764988;28;20349;-81
2023/07/31 09:39:11;;;;;;;2.00;1.48;;;;;;;15.30;80.88;99751.41;20779695;28;20710;-81
2023/07/31 09:49:14;;;;;;;4.53;1.70;;;;;;;14.91;84.25;99744.09;20780070;28;20682;-81
2023/07/31 09:59:19;;;;;;;2.87;1.80;;;;;;;15.48;81.17;99737.56;20754693;28;20228;-81
2023/07/31 10:09:26;;;;;;;1.80;1.50;;;;;;;15.36;82.37;99732.06;20760337;28;20237;-81
2023/07/31 10:19:30;;;;;;;2.23;1.23;;;;;;;15.59;82.03;99730.06;20772623;28;20638;-82
2023/07/31 10:29:32;;;;;;;2.35;1.58;;;;;;;15.91;81.35;99721.34;20757529;28;20254;-82
2023/07/31 10:39:36;;;;;;;1.60;1.00;;;;;;;16.36;79.46;99717.59;20779325;28;20274;-81
2023/07/31 10:49:39;;;;;;;1.25;0.77;;;;;;;15.00;83.63;99728.53;20770639;28;20270;-81
2023/07/31 10:59:42;;;;;;;1.70;0.95;;;;;;;16.23;78.99;99719.84;20789270;28;20533;-83
2023/07/31 11:09:44;;;;;;;1.13;1.02;;;;;;;15.69;80.38;99726.63;20772892;28;20220;-82
2023/07/31 11:19:50;;;;;;;2.28;1.70;;;;;;;15.30;83.75;99723.06;20784131;28;20286;-81
2023/07/31 11:29:53;;;;;;;3.72;1.83;;;;;;;15.09;82.87;99734.78;20812188;28;20471;-81
2023/07/31 11:40:00;;;;;;;2.83;2.20;;;;;;;16.23;78.43;99707.66;20772839;28;20275;-80
2023/07/31 11:50:04;;;;;;;4.18;2.38;;;;;;;16.32;77.87;99699.66;20789525;28;20201;-81
2023/07/31 12:00:09;;;;;;;3.28;2.65;;;;;;;15.82;80.19;99695.25;20788446;28;20246;-80
2023/07/31 12:10:23;;;;;;;3.03;2.75;;;;;;;16.48;76.88;99686.94;20648552;28;20264;-81
2023/07/31 12:20:26;;;;;;;6.45;2.15;;;;;;;16.49;77.58;99691.41;20659203;28;20202;-80
2023/07/31 12:30:37;;;;;;;2.75;1.65;;;;;;;16.64;76.25;99683.09;20637531;28;20206;-81
2023/07/31 12:40:41;;;;;;;2.63;1.80;;;;;;;16.83;75.88;99671.56;20640928;28;20301;-79
2023/07/31 12:50:44;;;;;;;4.00;1.92;;;;;;;17.26;75.71;99672.09;20664815;28;20210;-80
2023/07/31 13:00:46;;;;;;;4.03;1.85;;;;;;;17.00;76.62;99667.31;20645442;28;20202;-81
2023/07/31 13:10:49;;;;;;;2.15;1.50;;;;;;;16.81;76.51;99660.59;20714284;28;20621;-80
2023/07/31 13:20:51;;;;;;;1.73;1.30;;;;;;;17.14;74.79;99628.50;20710738;28;20204;-80
2023/07/31 13:30:54;;;;;;;3.25;1.20;;;;;;;16.83;76.05;99620.44;20732459;28;20275;-81
2023/07/31 13:40:57;;;;;;;2.15;1.48;;;;;;;16.90;77.72;99626.19;20710780;28;20247;-80
2023/07/31 13:51:00;;;;;;;4.13;1.15;;;;;;;17.23;76.16;99607.47;20698888;28;20267;-81
2023/07/31 14:01:04;;;;;;;1.73;1.30;;;;;;;16.94;76.54;99598.63;20696610;28;20271;-80
2023/07/31 14:11:07;;;;;;;1.98;1.52;;;;;;;17.30;74.58;99607.53;20702911;28;20283;-82
2023/07/31 14:21:12;;;;;;;2.58;1.95;;;;;;;17.76;72.38;99580.28;20689523;28;20197;-81
2023/07/31 14:31:15;;;;;;;2.33;1.73;;;;;;;18.03;71.38;99560.97;20704549;28;20571;-80
2023/07/31 14:41:17;;;;;;;2.97;2.25;;;;;;;17.60;72.65;99571.22;20688832;28;20457;-80
2023/07/31 14:51:20;;;;;;;3.10;2.10;;;;;;;18.23;72.12;99565.13;20753075;28;20205;-80
2023/07/31 15:01:23;;;;;;;4.82;2.60;;;;;;;18.20;68.67;99551.66;20722984;28;20197;-79
2023/07/31 15:11:26;;;;;;;3.53;2.25;;;;;;;17.17;71.38;99559.44;20738263;28;20283;-81
2023/07/31 15:21:29;;;;;;;3.70;2.25;;;;;;;17.73;70.07;99551.78;20717757;28;20197;-80
2023/07/31 15:31:32;;;;;;;3.30;2.30;;;;;;;18.19;68.65;99552.06;20714693;28;20278;-82
2023/07/31 15:41:35;;;;;;;3.80;2.03;;;;;;;17.90;68.26;99529.13;20707754;28;20201;-79
2023/07/31 15:51:38;;;;;;;4.15;2.95;;;;;;;17.96;69.19;99508.84;20690896;28;20249;-80
2023/07/31 16:01:41;;;;;;;3.30;2.30;;;;;;;18.40;67.55;99486.66;20674036;28;20271;-80
2023/07/31 16:11:44;;;;;;;3.75;2.50;;;;;;;18.19;65.33;99480.88;20634015;28;20323;-82
2023/07/31 16:21:47;;;;;;;5.70;3.00;;;;;;;18.17;65.30;99469.09;20629428;28;20248;-82
2023/07/31 16:31:49;;;;;;;4.32;2.97;;;;;;;17.95;65.32;99455.97;20640441;28;20256;-80
2023/07/31 16:41:59;;;;;;;7.00;2.78;;;;;;;16.84;72.88;99460.09;20623134;28;20201;-81
2023/07/31 16:52:03;;;;;;;4.22;3.10;;;;;;;17.52;72.46;99428.13;20637772;28;20237;-81
2023/07/31 17:02:07;;;;;;;4.03;2.72;;;;;;;16.99;74.58;99413.53;20636885;28;20260;-79
2023/07/31 17:12:10;;;;;;;4.38;2.45;;;;;;;16.61;74.88;99405.50;20748529;28;20248;-80
2023/07/31 17:22:13;;;;;;;3.40;2.60;;;;;;;17.35;73.42;99403.22;20763501;28;20620;-81
2023/07/31 17:32:15;;;;;;;4.47;2.30;;;;;;;16.92;73.99;99392.75;20767339;28;20255;-80
2023/07/31 17:42:22;;;;;;;2.95;2.28;;;;;;;17.32;74.17;99369.06;20752984;28;20204;-82
2023/07/31 17:52:27;;;;;;;2.45;1.80;;;;;;;16.06;78.62;99368.44;20736311;28;20248;-80
2023/07/31 18:02:30;;;;;;;2.40;2.13;;;;;;;16.39;78.20;99354.16;20756417;28;20374;-81
2023/07/31 18:12:33;;;;;;;3.15;2.13;;;;;;;15.91;80.68;99349.63;20755908;28;20565;-81
2023/07/31 18:22:36;;;;;;;2.85;1.85;;;;;;;16.28;79.46;99338.22;20758889;28;20197;-81
2023/07/31 18:32:39;;;;;;;4.60;2.08;;;;;;;15.86;82.37;99321.59;20776284;28;20296;-81
2023/07/31 18:42:41;;;;;;;1.85;1.65;;;;;;;16.12;81.08;99299.56;20749365;28;20231;-81
2023/07/31 18:52:44;;;;;;;4.38;1.58;;;;;;;15.79;80.93;99294.81;20757655;28;20212;-80
2023/07/31 19:02:47;;;;;;;3.08;1.80;;;;;;;16.08;79.53;99278.06;20760508;28;20313;-81
2023/07/31 19:12:49;;;;;;;2.63;1.38;;;;;;;16.17;79.83;99265.16;20767662;28;20249;-79
2023/07/31 19:22:52;;;;;;;1.27;1.17;;;;;;;16.00;80.25;99245.13;20740163;28;20204;-78
2023/07/31 19:32:54;;;;;;;4.30;3.47;;;;;;;16.25;80.63;99220.59;20744584;28;20224;-80
2023/07/31 19:42:59;;;;;;;1.70;1.58;;;;;;;16.36;80.06;99213.00;20753031;28;20196;-81
2023/07/31 19:53:02;;;;;;;1.53;1.13;;;;;;;16.24;79.98;99186.97;20768577;28;20302;-79
2023/07/31 20:03:04;;;;;;;2.10;0.77;;;;;;;16.73;77.71;99180.78;20740983;28;20255;-80
2023/07/31 20:13:07;;;;;;;0.63;0.60;;;;;;;16.53;79.77;99183.09;20757232;28;20886;-82
2023/07/31 20:23:10;;;;;;;1.57;0.60;;;;;;;16.25;79.49;99182.88;20752921;28;20270;-81
2023/07/31 20:33:13;;;;;;;1.10;0.63;;;;;;;16.41;79.37;99186.25;20770677;28;20220;-80
2023/07/31 20:43:17;;;;;;;1.27;0.70;;;;;;;16.63;78.36;99170.19;20745008;28;20189;-82
2023/07/31 20:53:20;;;;;;;0.82;0.60;;;;;;;15.78;81.60;99174.03;20749835;28;20244;-81
2023/07/31 21:03:23;;;;;;;0.70;0.70;;;;;;;15.98;80.73;99168.13;20777702;28;20290;-82
2023/07/31 21:13:25;;;;;;;0.77;0.70;;;;;;;16.24;78.88;99136.66;20745319;28;20208;-81
2023/07/31 21:23:28;;;;;;;0.40;0.40;;;;;;;16.30;78.65;99125.75;20766633;28;20493;-81
2023/07/31 21:33:31;;;;;;;0.50;0.40;;;;;;;16.33;78.18;99079.53;20767496;28;20271;-81
2023/07/31 21:43:34;;;;;;;1.80;0.40;;;;;;;16.45;77.30;99068.63;20759950;28;20201;-83
2023/07/31 21:53:37;;;;;;;3.08;0.40;;;;;;;16.48;78.02;99039.44;20745095;28;20220;-81
2023/07/31 22:03:39;;;;;;;1.97;0.57;;;;;;;16.20;79.25;99030.81;20738942;28;20251;-81
2023/07/31 22:13:42;;;;;;;1.05;0.57;;;;;;;16.31;80.21;99010.97;20780103;28;20274;-81
2023/07/31 22:23:47;;;;;;;0.43;0.40;;;;;;;15.96;80.92;98983.28;20773043;28;20192;-82
2023/07/31 22:33:50;;;;;;;1.13;0.50;;;;;;;16.33;78.75;98975.31;20795683;28;20262;-82
2023/07/31 22:43:53;;;;;;;0.70;0.70;;;;;;;16.43;78.71;98948.97;20765116;28;20204;-81
2023/07/31 22:53:56;;;;;;;0.95;0.60;;;;;;;16.41;79.01;98947.72;20774188;28;20216;-81
2023/07/31 23:03:58;;;;;;;0.60;0.60;;;;;;;16.24;79.87;98931.50;20778502;28;20220;-81
2023/07/31 23:14:01;;;;;;;0.60;0.50;;;;;;;16.48;78.88;98908.00;20788288;28;20242;-80
2023/07/31 23:24:03;;;;;;;0.50;0.43;;;;;;;16.42;79.65;98886.91;20793472;28;20192;-81
2023/07/31 23:34:06;;;;;;;0.30;0.30;;;;;;;16.74;76.90;98852.88;20819785;28;20232;-81
2023/07/31 23:44:08;;;;;;;0.88;0.38;;;;;;;17.44;75.12;98834.06;20813868;28;20254;-82
2023/07/31 23:54:12;;;;;;;1.85;0.30;;;;;;;16.93;76.93;98835.38;20819217;28;20334;-82
